sensor_id;sensor_type;location;lat;lon;timestamp;P1;durP1;ratioP1;P2;durP2;ratioP2
11964;SDS011;6042;41.326;19.826;2023-05-07T00:01:11;10.37;;;6.20;;
11964;SDS011;6042;41.326;19.826;2023-05-07T00:03:45;51.63;;;8.90;;
11964;SDS011;6042;41.326;19.826;2023-05-07T00:06:14;11.40;;;6.57;;
11964;SDS011;6042;41.326;19.826;2023-05-07T00:08:42;11.80;;;7.10;;
11964;SDS011;6042;41.326;19.826;2023-05-07T00:11:14;14.50;;;7.33;;
11964;SDS011;6042;41.326;19.826;2023-05-07T00:13:43;14.60;;;7.30;;
11964;SDS011;6042;41.326;19.826;2023-05-07T00:16:11;10.30;;;6.67;;
11964;SDS011;6042;41.326;19.826;2023-05-07T00:18:40;18.83;;;6.80;;
11964;SDS011;6042;41.326;19.826;2023-05-07T00:21:10;13.73;;;6.60;;
11964;SDS011;6042;41.326;19.826;2023-05-07T00:23:39;8.90;;;6.57;;
11964;SDS011;6042;41.326;19.826;2023-05-07T00:26:07;12.07;;;6.90;;
11964;SDS011;6042;41.326;19.826;2023-05-07T00:28:36;11.47;;;7.20;;
11964;SDS011;6042;41.326;19.826;2023-05-07T00:31:05;11.53;;;6.70;;
11964;SDS011;6042;41.326;19.826;2023-05-07T00:33:33;31.57;;;8.10;;
11964;SDS011;6042;41.326;19.826;2023-05-07T00:36:02;21.67;;;8.23;;
11964;SDS011;6042;41.326;19.826;2023-05-07T00:38:33;24.53;;;7.90;;
11964;SDS011;6042;41.326;19.826;2023-05-07T00:41:02;17.17;;;7.03;;
11964;SDS011;6042;41.326;19.826;2023-05-07T00:43:30;10.07;;;6.97;;
11964;SDS011;6042;41.326;19.826;2023-05-07T00:46:01;7.10;;;6.40;;
11964;SDS011;6042;41.326;19.826;2023-05-07T00:48:30;11.07;;;7.03;;
11964;SDS011;6042;41.326;19.826;2023-05-07T00:50:59;11.43;;;6.80;;
11964;SDS011;6042;41.326;19.826;2023-05-07T00:53:28;12.07;;;7.30;;
11964;SDS011;6042;41.326;19.826;2023-05-07T00:55:58;11.37;;;6.60;;
11964;SDS011;6042;41.326;19.826;2023-05-07T00:58:29;16.80;;;6.63;;
11964;SDS011;6042;41.326;19.826;2023-05-07T01:00:58;14.70;;;7.57;;
11964;SDS011;6042;41.326;19.826;2023-05-07T01:03:26;9.30;;;6.17;;
11964;SDS011;6042;41.326;19.826;2023-05-07T01:05:56;9.07;;;5.93;;
11964;SDS011;6042;41.326;19.826;2023-05-07T01:08:28;19.80;;;6.70;;
11964;SDS011;6042;41.326;19.826;2023-05-07T01:10:59;11.20;;;6.17;;
11964;SDS011;6042;41.326;19.826;2023-05-07T01:13:28;9.70;;;6.23;;
11964;SDS011;6042;41.326;19.826;2023-05-07T01:15:57;14.77;;;6.33;;
11964;SDS011;6042;41.326;19.826;2023-05-07T01:18:25;7.30;;;5.77;;
11964;SDS011;6042;41.326;19.826;2023-05-07T01:20:57;6.63;;;5.67;;
11964;SDS011;6042;41.326;19.826;2023-05-07T01:23:28;9.67;;;6.03;;
11964;SDS011;6042;41.326;19.826;2023-05-07T01:25:58;10.37;;;5.67;;
11964;SDS011;6042;41.326;19.826;2023-05-07T01:28:28;15.33;;;6.07;;
11964;SDS011;6042;41.326;19.826;2023-05-07T01:31:00;8.07;;;5.77;;
11964;SDS011;6042;41.326;19.826;2023-05-07T01:33:34;9.50;;;6.23;;
11964;SDS011;6042;41.326;19.826;2023-05-07T01:36:05;7.90;;;5.70;;
11964;SDS011;6042;41.326;19.826;2023-05-07T01:38:37;7.80;;;6.13;;
11964;SDS011;6042;41.326;19.826;2023-05-07T01:41:07;8.37;;;5.83;;
11964;SDS011;6042;41.326;19.826;2023-05-07T01:43:35;15.40;;;5.70;;
11964;SDS011;6042;41.326;19.826;2023-05-07T01:46:04;10.20;;;6.13;;
11964;SDS011;6042;41.326;19.826;2023-05-07T01:48:33;6.90;;;6.07;;
11964;SDS011;6042;41.326;19.826;2023-05-07T01:51:03;13.43;;;6.43;;
11964;SDS011;6042;41.326;19.826;2023-05-07T01:53:35;14.60;;;5.90;;
11964;SDS011;6042;41.326;19.826;2023-05-07T01:56:07;7.67;;;5.30;;
11964;SDS011;6042;41.326;19.826;2023-05-07T01:58:38;10.63;;;6.10;;
11964;SDS011;6042;41.326;19.826;2023-05-07T02:01:07;6.77;;;5.40;;
11964;SDS011;6042;41.326;19.826;2023-05-07T02:03:36;6.80;;;5.40;;
11964;SDS011;6042;41.326;19.826;2023-05-07T02:06:11;7.17;;;5.63;;
11964;SDS011;6042;41.326;19.826;2023-05-07T02:08:41;9.07;;;5.20;;
11964;SDS011;6042;41.326;19.826;2023-05-07T02:11:12;6.40;;;5.03;;
11964;SDS011;6042;41.326;19.826;2023-05-07T02:13:41;6.03;;;5.17;;
11964;SDS011;6042;41.326;19.826;2023-05-07T02:16:09;6.13;;;5.40;;
11964;SDS011;6042;41.326;19.826;2023-05-07T02:18:41;6.67;;;5.60;;
11964;SDS011;6042;41.326;19.826;2023-05-07T02:21:09;5.77;;;5.13;;
11964;SDS011;6042;41.326;19.826;2023-05-07T02:23:38;7.30;;;5.20;;
11964;SDS011;6042;41.326;19.826;2023-05-07T02:26:08;7.57;;;5.07;;
11964;SDS011;6042;41.326;19.826;2023-05-07T02:28:38;8.93;;;5.33;;
11964;SDS011;6042;41.326;19.826;2023-05-07T02:31:07;9.23;;;5.67;;
11964;SDS011;6042;41.326;19.826;2023-05-07T02:33:36;6.80;;;5.70;;
11964;SDS011;6042;41.326;19.826;2023-05-07T02:36:07;7.03;;;5.07;;
11964;SDS011;6042;41.326;19.826;2023-05-07T02:38:53;32.70;;;7.77;;
11964;SDS011;6042;41.326;19.826;2023-05-07T02:41:22;6.43;;;5.40;;
11964;SDS011;6042;41.326;19.826;2023-05-07T02:43:53;7.47;;;6.00;;
11964;SDS011;6042;41.326;19.826;2023-05-07T02:46:22;6.23;;;5.73;;
11964;SDS011;6042;41.326;19.826;2023-05-07T02:48:58;6.80;;;6.20;;
11964;SDS011;6042;41.326;19.826;2023-05-07T02:51:29;9.10;;;6.20;;
11964;SDS011;6042;41.326;19.826;2023-05-07T02:54:01;7.23;;;6.43;;
11964;SDS011;6042;41.326;19.826;2023-05-07T02:56:31;6.50;;;5.90;;
11964;SDS011;6042;41.326;19.826;2023-05-07T02:59:01;8.73;;;5.90;;
11964;SDS011;6042;41.326;19.826;2023-05-07T03:01:34;6.77;;;6.20;;
11964;SDS011;6042;41.326;19.826;2023-05-07T03:04:07;6.93;;;5.90;;
11964;SDS011;6042;41.326;19.826;2023-05-07T03:06:37;6.23;;;5.63;;
11964;SDS011;6042;41.326;19.826;2023-05-07T03:09:06;6.60;;;5.97;;
11964;SDS011;6042;41.326;19.826;2023-05-07T03:11:36;7.03;;;6.07;;
11964;SDS011;6042;41.326;19.826;2023-05-07T03:14:06;7.60;;;6.23;;
11964;SDS011;6042;41.326;19.826;2023-05-07T03:16:35;7.47;;;6.13;;
11964;SDS011;6042;41.326;19.826;2023-05-07T03:19:04;6.83;;;5.63;;
11964;SDS011;6042;41.326;19.826;2023-05-07T03:21:32;6.50;;;5.47;;
11964;SDS011;6042;41.326;19.826;2023-05-07T03:24:04;6.20;;;5.70;;
11964;SDS011;6042;41.326;19.826;2023-05-07T03:26:33;8.37;;;5.60;;
11964;SDS011;6042;41.326;19.826;2023-05-07T03:29:02;7.77;;;5.50;;
11964;SDS011;6042;41.326;19.826;2023-05-07T03:31:33;5.77;;;5.27;;
11964;SDS011;6042;41.326;19.826;2023-05-07T03:34:05;5.97;;;5.47;;
11964;SDS011;6042;41.326;19.826;2023-05-07T03:36:33;6.27;;;5.67;;
11964;SDS011;6042;41.326;19.826;2023-05-07T03:39:08;6.47;;;4.93;;
11964;SDS011;6042;41.326;19.826;2023-05-07T03:41:39;6.47;;;5.57;;
11964;SDS011;6042;41.326;19.826;2023-05-07T03:44:08;5.77;;;5.00;;
11964;SDS011;6042;41.326;19.826;2023-05-07T03:46:39;5.60;;;5.20;;
11964;SDS011;6042;41.326;19.826;2023-05-07T03:49:09;5.27;;;4.77;;
11964;SDS011;6042;41.326;19.826;2023-05-07T03:51:38;5.13;;;4.67;;
11964;SDS011;6042;41.326;19.826;2023-05-07T03:54:07;5.97;;;5.03;;
11964;SDS011;6042;41.326;19.826;2023-05-07T03:56:39;6.40;;;5.17;;
11964;SDS011;6042;41.326;19.826;2023-05-07T03:59:08;5.30;;;4.50;;
11964;SDS011;6042;41.326;19.826;2023-05-07T04:01:38;7.53;;;4.90;;
11964;SDS011;6042;41.326;19.826;2023-05-07T04:04:07;10.23;;;4.90;;
11964;SDS011;6042;41.326;19.826;2023-05-07T04:06:36;7.37;;;4.57;;
11964;SDS011;6042;41.326;19.826;2023-05-07T04:09:05;7.40;;;4.90;;
11964;SDS011;6042;41.326;19.826;2023-05-07T04:11:37;5.07;;;4.53;;
11964;SDS011;6042;41.326;19.826;2023-05-07T04:14:10;6.10;;;4.70;;
11964;SDS011;6042;41.326;19.826;2023-05-07T04:16:40;5.47;;;4.83;;
11964;SDS011;6042;41.326;19.826;2023-05-07T04:19:10;6.00;;;4.50;;
11964;SDS011;6042;41.326;19.826;2023-05-07T04:21:39;6.57;;;4.97;;
11964;SDS011;6042;41.326;19.826;2023-05-07T04:24:08;5.20;;;4.57;;
11964;SDS011;6042;41.326;19.826;2023-05-07T04:26:36;8.30;;;4.93;;
11964;SDS011;6042;41.326;19.826;2023-05-07T04:29:05;4.60;;;4.20;;
11964;SDS011;6042;41.326;19.826;2023-05-07T04:31:34;5.10;;;4.60;;
11964;SDS011;6042;41.326;19.826;2023-05-07T04:34:04;10.23;;;5.20;;
11964;SDS011;6042;41.326;19.826;2023-05-07T04:36:34;6.80;;;4.80;;
11964;SDS011;6042;41.326;19.826;2023-05-07T04:39:08;7.23;;;4.90;;
11964;SDS011;6042;41.326;19.826;2023-05-07T04:41:41;6.37;;;4.70;;
11964;SDS011;6042;41.326;19.826;2023-05-07T04:44:11;9.97;;;4.93;;
11964;SDS011;6042;41.326;19.826;2023-05-07T04:46:39;7.40;;;4.70;;
11964;SDS011;6042;41.326;19.826;2023-05-07T04:49:10;5.43;;;4.30;;
11964;SDS011;6042;41.326;19.826;2023-05-07T04:51:39;7.77;;;4.47;;
11964;SDS011;6042;41.326;19.826;2023-05-07T04:54:12;5.80;;;4.33;;
11964;SDS011;6042;41.326;19.826;2023-05-07T04:56:40;5.83;;;4.60;;
11964;SDS011;6042;41.326;19.826;2023-05-07T04:59:09;8.07;;;5.10;;
11964;SDS011;6042;41.326;19.826;2023-05-07T05:01:37;5.70;;;4.10;;
11964;SDS011;6042;41.326;19.826;2023-05-07T05:04:07;4.40;;;4.00;;
11964;SDS011;6042;41.326;19.826;2023-05-07T05:06:37;6.67;;;4.30;;
11964;SDS011;6042;41.326;19.826;2023-05-07T05:09:06;6.73;;;4.67;;
11964;SDS011;6042;41.326;19.826;2023-05-07T05:11:36;19.20;;;7.07;;
11964;SDS011;6042;41.326;19.826;2023-05-07T05:14:04;7.13;;;4.77;;
11964;SDS011;6042;41.326;19.826;2023-05-07T05:16:33;5.57;;;4.60;;
11964;SDS011;6042;41.326;19.826;2023-05-07T05:19:04;5.23;;;4.50;;
11964;SDS011;6042;41.326;19.826;2023-05-07T05:21:38;11.77;;;4.90;;
11964;SDS011;6042;41.326;19.826;2023-05-07T05:24:08;8.40;;;4.90;;
11964;SDS011;6042;41.326;19.826;2023-05-07T05:26:38;9.20;;;5.33;;
11964;SDS011;6042;41.326;19.826;2023-05-07T05:29:06;24.83;;;6.73;;
11964;SDS011;6042;41.326;19.826;2023-05-07T05:31:39;23.73;;;6.07;;
11964;SDS011;6042;41.326;19.826;2023-05-07T05:34:09;14.73;;;5.30;;
11964;SDS011;6042;41.326;19.826;2023-05-07T05:36:39;10.37;;;4.93;;
11964;SDS011;6042;41.326;19.826;2023-05-07T05:39:08;10.63;;;4.77;;
11964;SDS011;6042;41.326;19.826;2023-05-07T05:41:37;8.50;;;4.23;;
11964;SDS011;6042;41.326;19.826;2023-05-07T05:44:07;20.90;;;6.00;;
11964;SDS011;6042;41.326;19.826;2023-05-07T05:46:36;9.80;;;4.63;;
11964;SDS011;6042;41.326;19.826;2023-05-07T05:49:05;20.80;;;6.03;;
11964;SDS011;6042;41.326;19.826;2023-05-07T05:51:34;12.63;;;5.07;;
11964;SDS011;6042;41.326;19.826;2023-05-07T05:54:07;27.17;;;6.13;;
11964;SDS011;6042;41.326;19.826;2023-05-07T05:56:36;12.83;;;6.00;;
11964;SDS011;6042;41.326;19.826;2023-05-07T05:59:06;18.00;;;5.90;;
11964;SDS011;6042;41.326;19.826;2023-05-07T06:01:36;10.27;;;4.73;;
11964;SDS011;6042;41.326;19.826;2023-05-07T06:04:04;10.10;;;4.90;;
11964;SDS011;6042;41.326;19.826;2023-05-07T06:06:33;6.13;;;5.03;;
11964;SDS011;6042;41.326;19.826;2023-05-07T06:09:02;7.73;;;5.03;;
11964;SDS011;6042;41.326;19.826;2023-05-07T06:11:38;7.77;;;4.73;;
11964;SDS011;6042;41.326;19.826;2023-05-07T06:14:09;19.10;;;5.87;;
11964;SDS011;6042;41.326;19.826;2023-05-07T06:16:38;8.47;;;5.10;;
11964;SDS011;6042;41.326;19.826;2023-05-07T06:19:07;7.23;;;5.63;;
11964;SDS011;6042;41.326;19.826;2023-05-07T06:21:37;6.57;;;5.00;;
11964;SDS011;6042;41.326;19.826;2023-05-07T06:24:07;6.47;;;5.27;;
11964;SDS011;6042;41.326;19.826;2023-05-07T06:26:39;7.67;;;5.30;;
11964;SDS011;6042;41.326;19.826;2023-05-07T06:29:09;6.90;;;5.00;;
11964;SDS011;6042;41.326;19.826;2023-05-07T06:31:40;8.80;;;5.87;;
11964;SDS011;6042;41.326;19.826;2023-05-07T06:34:10;7.13;;;5.80;;
11964;SDS011;6042;41.326;19.826;2023-05-07T06:36:41;5.57;;;5.07;;
11964;SDS011;6042;41.326;19.826;2023-05-07T06:39:26;8.07;;;5.43;;
11964;SDS011;6042;41.326;19.826;2023-05-07T06:41:56;7.10;;;5.73;;
11964;SDS011;6042;41.326;19.826;2023-05-07T06:44:30;7.10;;;6.07;;
11964;SDS011;6042;41.326;19.826;2023-05-07T06:47:08;9.10;;;6.33;;
11964;SDS011;6042;41.326;19.826;2023-05-07T06:49:40;7.53;;;6.87;;
11964;SDS011;6042;41.326;19.826;2023-05-07T06:52:11;11.20;;;7.50;;
11964;SDS011;6042;41.326;19.826;2023-05-07T06:54:40;10.77;;;7.70;;
11964;SDS011;6042;41.326;19.826;2023-05-07T06:57:12;10.23;;;7.13;;
11964;SDS011;6042;41.326;19.826;2023-05-07T06:59:40;12.10;;;7.37;;
11964;SDS011;6042;41.326;19.826;2023-05-07T07:02:09;11.37;;;7.07;;
11964;SDS011;6042;41.326;19.826;2023-05-07T07:04:38;8.30;;;7.23;;
11964;SDS011;6042;41.326;19.826;2023-05-07T07:07:09;7.53;;;6.40;;
11964;SDS011;6042;41.326;19.826;2023-05-07T07:09:39;10.80;;;6.67;;
11964;SDS011;6042;41.326;19.826;2023-05-07T07:12:09;8.80;;;5.93;;
11964;SDS011;6042;41.326;19.826;2023-05-07T07:14:40;28.17;;;9.57;;
11964;SDS011;6042;41.326;19.826;2023-05-07T07:17:09;10.50;;;6.63;;
11964;SDS011;6042;41.326;19.826;2023-05-07T07:19:38;6.93;;;5.77;;
11964;SDS011;6042;41.326;19.826;2023-05-07T07:22:07;10.80;;;6.63;;
11964;SDS011;6042;41.326;19.826;2023-05-07T07:24:36;10.20;;;6.77;;
11964;SDS011;6042;41.326;19.826;2023-05-07T07:27:07;9.10;;;6.20;;
11964;SDS011;6042;41.326;19.826;2023-05-07T07:29:36;7.77;;;5.77;;
11964;SDS011;6042;41.326;19.826;2023-05-07T07:32:06;7.73;;;5.37;;
11964;SDS011;6042;41.326;19.826;2023-05-07T07:34:34;7.73;;;6.30;;
11964;SDS011;6042;41.326;19.826;2023-05-07T07:37:03;7.70;;;5.93;;
11964;SDS011;6042;41.326;19.826;2023-05-07T07:39:34;6.40;;;5.40;;
11964;SDS011;6042;41.326;19.826;2023-05-07T07:42:06;9.17;;;6.53;;
11964;SDS011;6042;41.326;19.826;2023-05-07T07:44:35;11.90;;;6.83;;
11964;SDS011;6042;41.326;19.826;2023-05-07T07:47:08;7.10;;;5.87;;
11964;SDS011;6042;41.326;19.826;2023-05-07T07:49:38;9.13;;;5.60;;
11964;SDS011;6042;41.326;19.826;2023-05-07T07:52:08;11.87;;;6.60;;
11964;SDS011;6042;41.326;19.826;2023-05-07T07:54:38;10.83;;;5.70;;
11964;SDS011;6042;41.326;19.826;2023-05-07T07:57:07;6.20;;;5.60;;
11964;SDS011;6042;41.326;19.826;2023-05-07T07:59:36;9.17;;;6.10;;
11964;SDS011;6042;41.326;19.826;2023-05-07T08:02:05;9.63;;;5.77;;
11964;SDS011;6042;41.326;19.826;2023-05-07T08:04:37;7.87;;;5.00;;
11964;SDS011;6042;41.326;19.826;2023-05-07T08:07:07;9.93;;;5.80;;
11964;SDS011;6042;41.326;19.826;2023-05-07T08:09:39;6.80;;;4.97;;
11964;SDS011;6042;41.326;19.826;2023-05-07T08:12:10;5.93;;;5.23;;
11964;SDS011;6042;41.326;19.826;2023-05-07T08:14:38;5.50;;;4.87;;
11964;SDS011;6042;41.326;19.826;2023-05-07T08:17:08;6.37;;;5.63;;
11964;SDS011;6042;41.326;19.826;2023-05-07T08:19:38;8.80;;;4.87;;
11964;SDS011;6042;41.326;19.826;2023-05-07T08:22:10;6.63;;;4.80;;
11964;SDS011;6042;41.326;19.826;2023-05-07T08:24:39;18.77;;;7.27;;
11964;SDS011;6042;41.326;19.826;2023-05-07T08:27:08;5.47;;;4.97;;
11964;SDS011;6042;41.326;19.826;2023-05-07T08:29:39;7.50;;;5.27;;
11964;SDS011;6042;41.326;19.826;2023-05-07T08:32:08;7.20;;;4.97;;
11964;SDS011;6042;41.326;19.826;2023-05-07T08:34:38;5.90;;;4.50;;
11964;SDS011;6042;41.326;19.826;2023-05-07T08:37:07;7.23;;;4.73;;
11964;SDS011;6042;41.326;19.826;2023-05-07T08:39:36;7.63;;;5.67;;
11964;SDS011;6042;41.326;19.826;2023-05-07T08:42:12;6.20;;;5.60;;
11964;SDS011;6042;41.326;19.826;2023-05-07T08:44:44;6.03;;;5.17;;
11964;SDS011;6042;41.326;19.826;2023-05-07T08:47:16;7.47;;;5.07;;
11964;SDS011;6042;41.326;19.826;2023-05-07T08:49:50;7.07;;;4.83;;
11964;SDS011;6042;41.326;19.826;2023-05-07T08:52:19;6.00;;;5.30;;
11964;SDS011;6042;41.326;19.826;2023-05-07T08:54:48;6.50;;;4.83;;
11964;SDS011;6042;41.326;19.826;2023-05-07T08:57:17;6.03;;;4.93;;
11964;SDS011;6042;41.326;19.826;2023-05-07T08:59:47;5.30;;;4.80;;
11964;SDS011;6042;41.326;19.826;2023-05-07T09:02:17;5.73;;;5.23;;
11964;SDS011;6042;41.326;19.826;2023-05-07T09:04:46;7.53;;;4.70;;
11964;SDS011;6042;41.326;19.826;2023-05-07T09:07:17;6.63;;;4.87;;
11964;SDS011;6042;41.326;19.826;2023-05-07T09:09:46;6.63;;;4.70;;
11964;SDS011;6042;41.326;19.826;2023-05-07T09:12:14;6.40;;;4.57;;
11964;SDS011;6042;41.326;19.826;2023-05-07T09:14:43;6.87;;;4.53;;
11964;SDS011;6042;41.326;19.826;2023-05-07T09:17:12;6.77;;;4.57;;
11964;SDS011;6042;41.326;19.826;2023-05-07T09:19:41;4.97;;;4.50;;
11964;SDS011;6042;41.326;19.826;2023-05-07T09:22:13;5.53;;;4.57;;
11964;SDS011;6042;41.326;19.826;2023-05-07T09:24:53;5.27;;;4.23;;
11964;SDS011;6042;41.326;19.826;2023-05-07T09:27:26;5.00;;;4.57;;
11964;SDS011;6042;41.326;19.826;2023-05-07T09:29:57;4.40;;;4.10;;
11964;SDS011;6042;41.326;19.826;2023-05-07T09:32:26;4.37;;;3.97;;
11964;SDS011;6042;41.326;19.826;2023-05-07T09:34:56;4.10;;;3.67;;
11964;SDS011;6042;41.326;19.826;2023-05-07T09:37:26;3.93;;;3.63;;
11964;SDS011;6042;41.326;19.826;2023-05-07T09:39:56;4.03;;;3.73;;
11964;SDS011;6042;41.326;19.826;2023-05-07T09:42:28;3.70;;;3.40;;
11964;SDS011;6042;41.326;19.826;2023-05-07T09:45:00;4.43;;;3.57;;
11964;SDS011;6042;41.326;19.826;2023-05-07T09:47:35;3.67;;;3.37;;
11964;SDS011;6042;41.326;19.826;2023-05-07T09:50:08;3.80;;;3.50;;
11964;SDS011;6042;41.326;19.826;2023-05-07T09:52:38;3.90;;;3.60;;
11964;SDS011;6042;41.326;19.826;2023-05-07T09:55:12;4.20;;;3.80;;
11964;SDS011;6042;41.326;19.826;2023-05-07T09:57:41;4.83;;;3.77;;
11964;SDS011;6042;41.326;19.826;2023-05-07T10:00:12;4.13;;;3.63;;
11964;SDS011;6042;41.326;19.826;2023-05-07T10:02:48;6.43;;;5.83;;
11964;SDS011;6042;41.326;19.826;2023-05-07T10:05:31;6.47;;;3.90;;
11964;SDS011;6042;41.326;19.826;2023-05-07T10:08:01;3.83;;;3.53;;
11964;SDS011;6042;41.326;19.826;2023-05-07T10:10:37;3.67;;;3.37;;
11964;SDS011;6042;41.326;19.826;2023-05-07T10:13:09;3.93;;;3.57;;
11964;SDS011;6042;41.326;19.826;2023-05-07T10:15:43;4.83;;;3.90;;
11964;SDS011;6042;41.326;19.826;2023-05-07T10:18:13;3.83;;;3.23;;
11964;SDS011;6042;41.326;19.826;2023-05-07T10:20:49;3.80;;;3.50;;
11964;SDS011;6042;41.326;19.826;2023-05-07T10:23:22;4.03;;;3.17;;
11964;SDS011;6042;41.326;19.826;2023-05-07T10:25:58;4.37;;;3.43;;
11964;SDS011;6042;41.326;19.826;2023-05-07T10:28:31;3.70;;;3.40;;
11964;SDS011;6042;41.326;19.826;2023-05-07T10:31:10;3.60;;;3.30;;
11964;SDS011;6042;41.326;19.826;2023-05-07T10:33:52;3.83;;;3.43;;
11964;SDS011;6042;41.326;19.826;2023-05-07T10:36:25;3.80;;;3.40;;
11964;SDS011;6042;41.326;19.826;2023-05-07T10:38:54;3.77;;;3.27;;
11964;SDS011;6042;41.326;19.826;2023-05-07T10:41:25;4.27;;;3.60;;
11964;SDS011;6042;41.326;19.826;2023-05-07T10:43:54;3.87;;;3.50;;
11964;SDS011;6042;41.326;19.826;2023-05-07T10:46:28;4.83;;;3.97;;
11964;SDS011;6042;41.326;19.826;2023-05-07T10:49:06;4.37;;;3.67;;
11964;SDS011;6042;41.326;19.826;2023-05-07T10:55:21;4.90;;;4.40;;
11964;SDS011;6042;41.326;19.826;2023-05-07T10:58:23;3.53;;;3.20;;
11964;SDS011;6042;41.326;19.826;2023-05-07T11:04:22;3.73;;;3.37;;
11964;SDS011;6042;41.326;19.826;2023-05-07T11:07:29;3.70;;;3.33;;
11964;SDS011;6042;41.326;19.826;2023-05-07T11:10:03;6.07;;;3.87;;
11964;SDS011;6042;41.326;19.826;2023-05-07T11:12:55;4.13;;;3.73;;
11964;SDS011;6042;41.326;19.826;2023-05-07T11:15:40;5.37;;;4.03;;
11964;SDS011;6042;41.326;19.826;2023-05-07T11:18:22;3.80;;;3.50;;
11964;SDS011;6042;41.326;19.826;2023-05-07T11:20:56;3.77;;;3.40;;
11964;SDS011;6042;41.326;19.826;2023-05-07T11:23:56;5.97;;;5.37;;
11964;SDS011;6042;41.326;19.826;2023-05-07T11:26:45;5.67;;;4.90;;
11964;SDS011;6042;41.326;19.826;2023-05-07T11:29:22;4.87;;;4.37;;
11964;SDS011;6042;41.326;19.826;2023-05-07T11:31:58;6.77;;;4.17;;
11964;SDS011;6042;41.326;19.826;2023-05-07T11:34:32;4.63;;;4.23;;
11964;SDS011;6042;41.326;19.826;2023-05-07T11:37:01;4.73;;;4.33;;
11964;SDS011;6042;41.326;19.826;2023-05-07T11:40:01;4.70;;;4.20;;
11964;SDS011;6042;41.326;19.826;2023-05-07T11:42:32;5.30;;;4.37;;
11964;SDS011;6042;41.326;19.826;2023-05-07T11:45:02;5.50;;;3.93;;
11964;SDS011;6042;41.326;19.826;2023-05-07T11:47:33;4.77;;;3.83;;
11964;SDS011;6042;41.326;19.826;2023-05-07T11:50:04;5.30;;;4.80;;
11964;SDS011;6042;41.326;19.826;2023-05-07T11:52:35;4.50;;;4.10;;
11964;SDS011;6042;41.326;19.826;2023-05-07T11:55:06;6.73;;;6.13;;
11964;SDS011;6042;41.326;19.826;2023-05-07T11:57:36;4.60;;;4.03;;
11964;SDS011;6042;41.326;19.826;2023-05-07T12:00:05;7.77;;;4.57;;
11964;SDS011;6042;41.326;19.826;2023-05-07T12:02:41;6.37;;;5.77;;
11964;SDS011;6042;41.326;19.826;2023-05-07T12:05:10;6.37;;;5.50;;
11964;SDS011;6042;41.326;19.826;2023-05-07T12:07:40;4.67;;;3.70;;
11964;SDS011;6042;41.326;19.826;2023-05-07T12:10:09;4.33;;;3.70;;
11964;SDS011;6042;41.326;19.826;2023-05-07T12:12:40;3.40;;;3.13;;
11964;SDS011;6042;41.326;19.826;2023-05-07T12:15:09;3.73;;;3.30;;
11964;SDS011;6042;41.326;19.826;2023-05-07T12:17:38;4.10;;;3.70;;
11964;SDS011;6042;41.326;19.826;2023-05-07T12:20:10;3.97;;;3.67;;
11964;SDS011;6042;41.326;19.826;2023-05-07T12:22:39;5.77;;;3.40;;
11964;SDS011;6042;41.326;19.826;2023-05-07T12:25:08;4.33;;;3.57;;
11964;SDS011;6042;41.326;19.826;2023-05-07T12:27:37;3.60;;;3.20;;
11964;SDS011;6042;41.326;19.826;2023-05-07T12:30:09;4.20;;;3.40;;
11964;SDS011;6042;41.326;19.826;2023-05-07T12:32:39;3.13;;;2.93;;
11964;SDS011;6042;41.326;19.826;2023-05-07T12:35:09;4.27;;;3.33;;
11964;SDS011;6042;41.326;19.826;2023-05-07T12:37:38;2.92;;;2.72;;
11964;SDS011;6042;41.326;19.826;2023-05-07T12:40:08;3.23;;;2.97;;
11964;SDS011;6042;41.326;19.826;2023-05-07T12:42:39;4.70;;;2.73;;
11964;SDS011;6042;41.326;19.826;2023-05-07T12:45:09;3.10;;;2.90;;
11964;SDS011;6042;41.326;19.826;2023-05-07T12:47:43;5.47;;;2.87;;
11964;SDS011;6042;41.326;19.826;2023-05-07T12:50:14;4.47;;;3.10;;
11964;SDS011;6042;41.326;19.826;2023-05-07T12:52:43;3.17;;;2.85;;
11964;SDS011;6042;41.326;19.826;2023-05-07T12:55:15;3.85;;;3.00;;
11964;SDS011;6042;41.326;19.826;2023-05-07T12:57:45;3.20;;;2.90;;
11964;SDS011;6042;41.326;19.826;2023-05-07T13:00:17;3.05;;;2.83;;
11964;SDS011;6042;41.326;19.826;2023-05-07T13:02:45;4.30;;;2.80;;
11964;SDS011;6042;41.326;19.826;2023-05-07T13:05:16;3.10;;;2.75;;
11964;SDS011;6042;41.326;19.826;2023-05-07T13:07:52;3.33;;;3.03;;
11964;SDS011;6042;41.326;19.826;2023-05-07T13:10:21;3.05;;;2.85;;
11964;SDS011;6042;41.326;19.826;2023-05-07T13:12:50;3.45;;;3.15;;
11964;SDS011;6042;41.326;19.826;2023-05-07T13:15:19;3.13;;;2.83;;
11964;SDS011;6042;41.326;19.826;2023-05-07T13:17:51;4.05;;;2.90;;
11964;SDS011;6042;41.326;19.826;2023-05-07T13:20:22;3.17;;;2.67;;
11964;SDS011;6042;41.326;19.826;2023-05-07T13:22:50;2.88;;;2.67;;
11964;SDS011;6042;41.326;19.826;2023-05-07T13:25:20;2.75;;;2.55;;
11964;SDS011;6042;41.326;19.826;2023-05-07T13:27:49;3.58;;;2.83;;
11964;SDS011;6042;41.326;19.826;2023-05-07T13:30:35;3.13;;;2.70;;
11964;SDS011;6042;41.326;19.826;2023-05-07T13:33:03;2.90;;;2.70;;
11964;SDS011;6042;41.326;19.826;2023-05-07T13:35:36;5.82;;;3.00;;
11964;SDS011;6042;41.326;19.826;2023-05-07T13:38:05;2.72;;;2.50;;
11964;SDS011;6042;41.326;19.826;2023-05-07T13:40:34;3.10;;;2.80;;
11964;SDS011;6042;41.326;19.826;2023-05-07T13:43:05;3.15;;;2.72;;
11964;SDS011;6042;41.326;19.826;2023-05-07T13:45:34;5.72;;;2.80;;
11964;SDS011;6042;41.326;19.826;2023-05-07T13:48:03;3.55;;;2.80;;
11964;SDS011;6042;41.326;19.826;2023-05-07T13:50:32;3.90;;;2.53;;
11964;SDS011;6042;41.326;19.826;2023-05-07T13:53:03;4.72;;;2.55;;
11964;SDS011;6042;41.326;19.826;2023-05-07T13:55:31;3.85;;;2.90;;
11964;SDS011;6042;41.326;19.826;2023-05-07T13:58:00;2.88;;;2.67;;
11964;SDS011;6042;41.326;19.826;2023-05-07T14:00:32;3.03;;;2.72;;
11964;SDS011;6042;41.326;19.826;2023-05-07T14:03:01;2.80;;;2.60;;
11964;SDS011;6042;41.326;19.826;2023-05-07T14:05:30;3.08;;;2.88;;
11964;SDS011;6042;41.326;19.826;2023-05-07T14:07:58;2.97;;;2.70;;
11964;SDS011;6042;41.326;19.826;2023-05-07T14:10:28;3.20;;;3.00;;
11964;SDS011;6042;41.326;19.826;2023-05-07T14:12:58;4.95;;;3.13;;
11964;SDS011;6042;41.326;19.826;2023-05-07T14:15:26;4.10;;;2.85;;
11964;SDS011;6042;41.326;19.826;2023-05-07T14:17:55;4.75;;;3.10;;
11964;SDS011;6042;41.326;19.826;2023-05-07T14:20:24;4.70;;;3.00;;
11964;SDS011;6042;41.326;19.826;2023-05-07T14:22:52;3.10;;;2.90;;
11964;SDS011;6042;41.326;19.826;2023-05-07T14:25:23;3.90;;;3.28;;
11964;SDS011;6042;41.326;19.826;2023-05-07T14:27:53;5.28;;;3.20;;
11964;SDS011;6042;41.326;19.826;2023-05-07T14:30:22;4.97;;;2.92;;
11964;SDS011;6042;41.326;19.826;2023-05-07T14:32:51;3.67;;;3.20;;
11964;SDS011;6042;41.326;19.826;2023-05-07T14:35:19;3.50;;;3.20;;
11964;SDS011;6042;41.326;19.826;2023-05-07T14:37:47;4.50;;;3.50;;
11964;SDS011;6042;41.326;19.826;2023-05-07T14:40:16;4.53;;;3.33;;
11964;SDS011;6042;41.326;19.826;2023-05-07T14:42:44;3.53;;;3.33;;
11964;SDS011;6042;41.326;19.826;2023-05-07T14:45:14;5.72;;;3.42;;
11964;SDS011;6042;41.326;19.826;2023-05-07T14:47:42;3.85;;;3.55;;
11964;SDS011;6042;41.326;19.826;2023-05-07T14:50:11;3.78;;;3.35;;
11964;SDS011;6042;41.326;19.826;2023-05-07T14:52:39;4.03;;;3.45;;
11964;SDS011;6042;41.326;19.826;2023-05-07T14:55:08;4.28;;;3.40;;
11964;SDS011;6042;41.326;19.826;2023-05-07T14:57:37;4.18;;;3.50;;
11964;SDS011;6042;41.326;19.826;2023-05-07T15:00:06;3.92;;;3.35;;
11964;SDS011;6042;41.326;19.826;2023-05-07T15:02:37;4.05;;;3.38;;
11964;SDS011;6042;41.326;19.826;2023-05-07T15:05:06;5.53;;;3.55;;
11964;SDS011;6042;41.326;19.826;2023-05-07T15:07:35;5.45;;;4.22;;
11964;SDS011;6042;41.326;19.826;2023-05-07T15:10:04;4.18;;;3.30;;
11964;SDS011;6042;41.326;19.826;2023-05-07T15:12:32;3.70;;;3.30;;
11964;SDS011;6042;41.326;19.826;2023-05-07T15:15:01;3.85;;;3.30;;